createdAt,value
2022-12-27T00:00:10.644Z,101358.38
2022-12-27T00:02:42.080Z,101347.19
2022-12-27T00:05:11.590Z,101355.72
2022-12-27T00:07:39.543Z,101350.69
2022-12-27T00:10:08.562Z,101341.25
2022-12-27T00:12:40.015Z,101357.50
2022-12-27T00:15:08.370Z,101346.38
2022-12-27T00:17:36.757Z,101345.53
2022-12-27T00:20:11.016Z,101336.91
2022-12-27T00:22:43.793Z,101342.97
2022-12-27T00:25:11.670Z,101330.06
2022-12-27T00:27:40.851Z,101336.09
2022-12-27T00:30:09.652Z,101341.25
2022-12-27T00:32:37.543Z,101323.19
2022-12-27T00:35:05.707Z,101321.47
2022-12-27T00:37:34.043Z,101314.66
2022-12-27T00:40:05.085Z,101306.06
2022-12-27T00:42:36.349Z,101303.50
2022-12-27T00:45:06.047Z,101299.25
2022-12-27T00:47:34.193Z,101298.34
2022-12-27T00:50:05.641Z,101296.62
2022-12-27T00:52:33.454Z,101293.19
2022-12-27T00:55:01.535Z,101284.59
2022-12-27T00:57:33.165Z,101295.78
2022-12-27T01:00:06.202Z,101288.09
2022-12-27T01:02:41.249Z,101289.78
2022-12-27T01:05:12.322Z,101282.09
2022-12-27T01:07:43.098Z,101281.19
2022-12-27T01:10:11.409Z,101282.06
2022-12-27T01:12:39.935Z,101282.09
2022-12-27T01:15:09.151Z,101271.78
2022-12-27T01:17:40.442Z,101263.22
2022-12-27T01:20:11.358Z,101261.53
2022-12-27T01:22:42.731Z,101258.06
2022-12-27T01:25:10.702Z,101254.63
2022-12-27T01:27:40.031Z,101250.34
2022-12-27T01:30:09.152Z,101250.34
2022-12-27T01:32:36.968Z,101245.22
2022-12-27T01:35:05.017Z,101252.06
2022-12-27T01:37:33.340Z,101235.78
2022-12-27T01:40:01.190Z,101222.91
2022-12-27T01:42:47.451Z,101234.06
2022-12-27T01:45:24.848Z,101225.47
2022-12-27T01:47:55.549Z,101220.34
2022-12-27T01:50:26.951Z,101207.50
2022-12-27T01:53:17.326Z,101201.50
2022-12-27T01:56:02.123Z,101202.31
2022-12-27T01:59:01.737Z,101200.66
2022-12-27T02:01:44.415Z,101192.03
2022-12-27T02:04:19.279Z,101186.84
2022-12-27T02:06:48.528Z,101189.50
2022-12-27T02:09:38.723Z,101186.09
2022-12-27T02:12:09.446Z,101184.34
2022-12-27T02:14:46.804Z,101185.22
2022-12-27T02:17:29.855Z,101182.63
2022-12-27T02:20:17.895Z,101171.47
2022-12-27T02:23:39.997Z,101165.47
2022-12-27T02:26:41.683Z,101167.25
2022-12-27T02:29:27.777Z,101172.41
2022-12-27T02:32:30.032Z,101165.53
2022-12-27T02:35:14.423Z,101166.31
2022-12-27T02:37:49.248Z,101167.22
2022-12-27T02:40:40.845Z,101168.03
2022-12-27T02:43:28.073Z,101167.22
2022-12-27T02:46:29.687Z,101175.81
2022-12-27T02:49:17.948Z,101169.84
2022-12-27T02:52:27.931Z,101164.66
2022-12-27T02:54:58.207Z,101157.81
2022-12-27T02:57:32.842Z,101162.13
2022-12-27T03:00:30.734Z,101156.13
2022-12-27T03:03:22.008Z,101154.38
2022-12-27T03:06:35.750Z,101149.19
2022-12-27T03:09:45.470Z,101138.94
2022-12-27T03:13:07.052Z,101143.19
2022-12-27T03:15:54.013Z,101135.50
2022-12-27T03:18:28.133Z,101130.34
2022-12-27T03:21:18.758Z,101123.47
2022-12-27T03:24:08.255Z,101126.09
2022-12-27T03:26:39.938Z,101113.22
2022-12-27T03:29:27.813Z,101112.41
2022-12-27T03:32:20.175Z,101117.50
2022-12-27T03:35:01.036Z,101108.16
2022-12-27T03:37:55.323Z,101111.44
2022-12-27T03:40:23.163Z,101104.66
2022-12-27T03:43:17.959Z,101089.19
2022-12-27T03:46:34.483Z,101086.75
2022-12-27T03:49:21.049Z,101082.44
2022-12-27T03:51:58.700Z,101078.16
2022-12-27T03:54:32.690Z,101067.84
2022-12-27T03:57:27.016Z,101065.22
2022-12-27T03:59:58.200Z,101064.41
2022-12-27T04:02:26.160Z,101064.37
2022-12-27T04:04:54.766Z,101057.53
2022-12-27T04:07:22.650Z,101060.91
2022-12-27T04:10:09.196Z,101059.22
2022-12-27T04:12:56.123Z,101048.91
2022-12-27T04:15:42.534Z,101043.84
2022-12-27T04:18:29.301Z,101037.81
2022-12-27T04:21:16.555Z,101041.28
2022-12-27T04:24:02.988Z,101029.38
2022-12-27T04:26:49.268Z,101049.94
2022-12-27T04:29:36.033Z,101031.88
2022-12-27T04:32:22.541Z,101025.84
2022-12-27T04:34:53.368Z,101019.87
2022-12-27T04:37:21.670Z,101025.88
2022-12-27T04:40:08.003Z,101025.00
2022-12-27T04:42:55.116Z,101024.22
2022-12-27T04:45:42.226Z,101015.53
2022-12-27T04:48:33.565Z,100996.75
2022-12-27T04:51:20.474Z,101005.34
2022-12-27T04:54:07.166Z,100987.34
2022-12-27T04:56:35.075Z,101001.12
2022-12-27T04:59:21.537Z,100981.31
2022-12-27T05:02:04.794Z,100981.28
2022-12-27T05:04:36.455Z,100976.16
2022-12-27T05:07:26.726Z,100978.78
2022-12-27T05:10:13.781Z,100983.88
2022-12-27T05:13:00.224Z,100976.97
2022-12-27T05:15:31.204Z,100971.88
2022-12-27T05:17:59.243Z,100963.34
2022-12-27T05:20:27.030Z,100966.75
2022-12-27T05:23:16.603Z,100955.69
2022-12-27T05:25:47.803Z,100948.78
2022-12-27T05:28:18.930Z,100947.03
2022-12-27T05:30:49.918Z,100953.06
2022-12-27T05:33:21.228Z,100953.03
2022-12-27T05:35:51.872Z,100952.19
2022-12-27T05:38:20.139Z,100941.09
2022-12-27T05:40:47.928Z,100945.31
2022-12-27T05:43:15.802Z,100952.25
2022-12-27T05:45:44.023Z,100952.22
2022-12-27T05:48:12.177Z,100950.47
2022-12-27T05:50:40.060Z,100953.06
2022-12-27T05:53:11.596Z,100943.56
2022-12-27T05:55:39.479Z,100943.56
2022-12-27T05:58:07.507Z,100952.25
2022-12-27T06:00:38.302Z,100944.47
2022-12-27T06:03:06.575Z,100941.06
2022-12-27T06:05:34.500Z,100935.88
2022-12-27T06:08:02.420Z,100922.22
2022-12-27T06:10:30.921Z,100925.69
2022-12-27T06:13:05.735Z,100919.75
2022-12-27T06:15:34.249Z,100925.75
2022-12-27T06:18:03.797Z,100916.16
2022-12-27T06:20:34.974Z,100911.87
2022-12-27T06:23:03.113Z,100917.06
2022-12-27T06:25:30.919Z,100917.97
2022-12-27T06:27:58.944Z,100914.44
2022-12-27T06:30:29.322Z,100905.88
2022-12-27T06:33:00.659Z,100901.63
2022-12-27T06:35:28.714Z,100907.75
2022-12-27T06:37:56.594Z,100898.37
2022-12-27T06:40:24.460Z,100892.25
2022-12-27T06:42:52.516Z,100899.16
2022-12-27T06:45:20.383Z,100889.72
2022-12-27T06:47:51.529Z,100898.13
2022-12-27T06:50:19.723Z,100880.16
2022-12-27T06:52:47.388Z,100880.16
2022-12-27T06:55:15.392Z,100876.75
2022-12-27T06:57:43.598Z,100876.88
2022-12-27T07:00:13.728Z,100868.50
2022-12-27T07:02:41.570Z,100881.19
2022-12-27T07:05:09.788Z,100871.66
2022-12-27T07:07:37.593Z,100885.53
2022-12-27T07:10:05.586Z,100874.22
2022-12-27T07:12:36.803Z,100871.53
2022-12-27T07:15:07.247Z,100853.84
2022-12-27T07:17:36.641Z,100867.22
2022-12-27T07:20:05.682Z,100860.31
2022-12-27T07:22:33.727Z,100852.69
2022-12-27T07:25:01.907Z,100846.63
2022-12-27T07:27:34.684Z,100847.44
2022-12-27T07:30:04.414Z,100842.38
2022-12-27T07:32:32.988Z,100848.41
2022-12-27T07:35:04.242Z,100838.03
2022-12-27T07:37:35.328Z,100827.78
2022-12-27T07:40:04.300Z,100830.37
2022-12-27T07:42:32.397Z,100826.87
2022-12-27T07:45:00.162Z,100820.16
2022-12-27T07:47:28.549Z,100810.56
2022-12-27T07:49:56.825Z,100802.00
2022-12-27T07:52:27.333Z,100803.69
2022-12-27T07:54:58.155Z,100802.94
2022-12-27T07:57:26.327Z,100796.03
2022-12-27T07:59:54.218Z,100797.66
2022-12-27T08:02:22.247Z,100792.50
2022-12-27T08:04:50.483Z,100792.56
2022-12-27T08:07:20.337Z,100792.53
2022-12-27T08:09:49.326Z,100786.66
2022-12-27T08:12:17.708Z,100780.56
2022-12-27T08:14:45.981Z,100771.94
2022-12-27T08:17:22.952Z,100769.28
2022-12-27T08:19:52.580Z,100765.13
2022-12-27T08:22:21.479Z,100766.69
2022-12-27T08:24:49.638Z,100765.00
2022-12-27T08:27:25.098Z,100767.56
2022-12-27T08:29:52.784Z,100756.44
2022-12-27T08:32:24.192Z,100758.91
2022-12-27T08:34:52.087Z,100756.50
2022-12-27T08:37:19.932Z,100750.59
2022-12-27T08:39:48.221Z,100746.94
2022-12-27T08:42:16.039Z,100745.16
2022-12-27T08:44:44.467Z,100734.03
2022-12-27T08:47:13.455Z,100737.50
2022-12-27T08:49:41.286Z,100737.47
2022-12-27T08:52:12.177Z,100716.00
2022-12-27T08:54:40.339Z,100728.87
2022-12-27T08:57:08.220Z,100728.78
2022-12-27T08:59:36.089Z,100730.47
2022-12-27T09:02:04.327Z,100721.94
2022-12-27T09:04:35.442Z,100717.63
2022-12-27T09:07:04.039Z,100713.53
2022-12-27T09:09:32.466Z,100708.22
2022-12-27T09:12:03.135Z,100702.13
2022-12-27T09:14:35.926Z,100685.19
2022-12-27T09:17:03.834Z,100685.88
2022-12-27T09:19:32.045Z,100680.63
2022-12-27T09:22:00.304Z,100671.16
2022-12-27T09:24:31.010Z,100676.25
2022-12-27T09:26:58.824Z,100673.72
2022-12-27T09:29:27.025Z,100671.16
2022-12-27T09:31:58.273Z,100659.09
2022-12-27T09:34:25.990Z,100666.84
2022-12-27T09:36:54.188Z,100661.69
2022-12-27T09:39:22.702Z,100653.06
2022-12-27T09:42:47.641Z,100652.12
2022-12-27T09:45:16.285Z,100652.16
2022-12-27T09:48:11.036Z,100639.28
2022-12-27T09:50:52.781Z,100638.34
2022-12-27T09:53:51.461Z,100631.53
2022-12-27T09:56:47.355Z,100627.25
2022-12-27T09:59:32.315Z,100617.94
2022-12-27T10:02:00.374Z,100628.06
2022-12-27T10:05:09.930Z,100627.25
2022-12-27T10:07:44.598Z,100628.91
2022-12-27T10:10:35.559Z,100621.22
2022-12-27T10:13:12.571Z,100621.25
2022-12-27T10:16:18.421Z,100606.66
2022-12-27T10:19:13.552Z,100610.97
2022-12-27T10:21:58.959Z,100609.22
2022-12-27T10:24:51.763Z,100606.72
2022-12-27T10:27:24.022Z,100598.91
2022-12-27T10:29:54.449Z,100596.34
2022-12-27T10:32:22.973Z,100601.47
2022-12-27T10:34:56.980Z,100598.09
2022-12-27T10:37:25.293Z,100594.66
2022-12-27T10:39:53.160Z,100598.03
2022-12-27T10:42:37.591Z,100595.50
2022-12-27T10:45:26.620Z,100584.28
2022-12-27T10:48:16.830Z,100586.91
2022-12-27T10:50:51.790Z,100579.16
2022-12-27T10:53:33.659Z,100580.06
2022-12-27T10:56:13.840Z,100574.91
2022-12-27T10:58:43.071Z,100565.44
2022-12-27T11:01:24.979Z,100567.19
2022-12-27T11:04:14.343Z,100568.84
2022-12-27T11:07:18.236Z,100556.81
2022-12-27T11:09:51.185Z,100560.31
2022-12-27T11:12:24.464Z,100549.91
2022-12-27T11:15:00.351Z,100542.13
2022-12-27T11:17:48.876Z,100538.78
2022-12-27T11:20:29.480Z,100541.34
2022-12-27T11:23:05.972Z,100523.19
2022-12-27T11:25:34.637Z,100517.28
2022-12-27T11:28:07.215Z,100509.47
2022-12-27T11:30:57.675Z,100504.38
2022-12-27T11:33:39.550Z,100497.44
2022-12-27T11:36:12.301Z,100493.19
2022-12-27T11:38:47.813Z,100495.66
2022-12-27T11:41:31.549Z,100488.84
2022-12-27T11:44:20.856Z,100486.38
2022-12-27T11:47:20.014Z,100485.38
2022-12-27T11:50:06.274Z,100470.84
2022-12-27T11:52:47.200Z,100471.66
2022-12-27T11:55:46.307Z,100479.50
2022-12-27T11:58:44.793Z,100469.09
2022-12-27T12:01:38.813Z,100467.44
2022-12-27T12:04:28.483Z,100470.81
2022-12-27T12:06:59.492Z,100463.09
2022-12-27T12:09:56.679Z,100467.44
2022-12-27T12:13:09.131Z,100468.34
2022-12-27T12:15:59.354Z,100477.66
2022-12-27T12:18:39.144Z,100461.28
2022-12-27T12:21:29.016Z,100456.12
2022-12-27T12:24:02.715Z,100464.84
2022-12-27T12:27:07.406Z,100451.84
2022-12-27T12:30:02.699Z,100456.94
2022-12-27T12:33:01.155Z,100445.81
2022-12-27T12:35:46.881Z,100442.50
2022-12-27T12:38:22.202Z,100444.19
2022-12-27T12:40:52.105Z,100439.12
2022-12-27T12:49:44.578Z,100437.25
2022-12-27T12:53:16.921Z,100438.94
2022-12-27T12:55:51.233Z,100427.00
2022-12-27T12:58:50.784Z,100425.34
2022-12-27T13:01:30.790Z,100419.13
2022-12-27T13:04:34.503Z,100415.00
2022-12-27T13:07:41.621Z,100414.84
2022-12-27T13:10:27.895Z,100393.19
2022-12-27T13:13:08.606Z,100402.69
2022-12-27T13:16:24.182Z,100402.69
2022-12-27T13:19:19.079Z,100404.53
2022-12-27T13:22:16.435Z,100401.00
2022-12-27T13:25:18.855Z,100399.34
2022-12-27T13:28:01.657Z,100400.09
2022-12-27T13:30:41.667Z,100389.09
2022-12-27T13:33:28.195Z,100380.44
2022-12-27T13:36:11.928Z,100377.94
2022-12-27T13:41:50.379Z,100370.13
2022-12-27T13:44:26.895Z,100369.28
2022-12-27T13:47:21.373Z,100355.59
2022-12-27T13:50:17.259Z,100355.47
2022-12-27T13:59:43.439Z,100345.22
2022-12-27T14:02:32.984Z,100350.31
2022-12-27T14:05:20.026Z,100351.88
2022-12-27T14:08:12.635Z,100352.75
2022-12-27T14:10:58.649Z,100353.62
2022-12-27T14:13:36.832Z,100347.53
2022-12-27T14:16:33.253Z,100347.47
2022-12-27T14:19:31.927Z,100345.87
2022-12-27T14:22:42.476Z,100333.81
2022-12-27T14:25:31.682Z,100334.59
2022-12-27T14:28:05.420Z,100326.81
2022-12-27T14:31:04.440Z,100326.00
2022-12-27T14:33:39.753Z,100315.66
2022-12-27T14:36:32.689Z,100313.19
2022-12-27T14:39:38.591Z,100310.53
2022-12-27T14:42:36.811Z,100306.16
2022-12-27T14:45:45.912Z,100292.50
2022-12-27T14:48:28.977Z,100288.00
2022-12-27T14:51:26.202Z,100283.09
2022-12-27T14:54:27.131Z,100283.75
2022-12-27T14:57:15.090Z,100274.28
2022-12-27T15:00:03.910Z,100257.13
2022-12-27T15:02:35.314Z,100265.66
2022-12-27T15:05:41.318Z,100263.03
2022-12-27T15:08:37.857Z,100251.78
2022-12-27T15:11:20.908Z,100247.69
2022-12-27T15:14:04.507Z,100251.00
2022-12-27T15:16:52.334Z,100245.00
2022-12-27T15:19:38.907Z,100244.88
2022-12-27T15:22:31.213Z,100245.00
2022-12-27T15:25:15.626Z,100248.38
2022-12-27T15:28:00.094Z,100245.06
2022-12-27T15:30:45.808Z,100238.91
2022-12-27T15:33:51.791Z,100238.78
2022-12-27T15:36:36.316Z,100244.78
2022-12-27T15:39:04.958Z,100237.03
2022-12-27T15:41:33.032Z,100236.09
2022-12-27T15:44:19.930Z,100218.88
2022-12-27T15:47:10.114Z,100213.97
2022-12-27T15:49:53.121Z,100223.16
2022-12-27T15:52:53.556Z,100226.69
2022-12-27T15:55:59.373Z,100216.34
2022-12-27T15:58:29.359Z,100214.53
2022-12-27T16:01:25.796Z,100211.91
2022-12-27T16:03:58.774Z,100213.56
2022-12-27T16:06:44.649Z,100208.44
2022-12-27T16:09:35.917Z,100218.72
2022-12-27T16:12:41.938Z,100211.81
2022-12-27T16:15:35.119Z,100204.88
2022-12-27T16:18:04.053Z,100203.97
2022-12-27T16:20:33.580Z,100193.66
2022-12-27T16:23:08.239Z,100188.56
2022-12-27T16:25:41.575Z,100181.62
2022-12-27T16:28:26.333Z,100187.59
2022-12-27T16:30:57.036Z,100184.13
2022-12-27T16:33:28.416Z,100179.75
2022-12-27T16:36:15.313Z,100181.50
2022-12-27T16:38:46.263Z,100171.19
2022-12-27T16:41:27.531Z,100173.66
2022-12-27T16:44:24.070Z,100166.81
2022-12-27T16:47:27.893Z,100159.97
2022-12-27T16:50:08.267Z,100161.66
2022-12-27T16:53:17.861Z,100153.88
2022-12-27T16:56:15.423Z,100155.59
2022-12-27T16:58:43.905Z,100153.03
2022-12-27T17:01:26.729Z,100146.22
2022-12-27T17:03:58.613Z,100148.66
2022-12-27T17:06:33.561Z,100140.09
2022-12-27T17:09:11.328Z,100143.38
2022-12-27T17:11:48.639Z,100135.75
2022-12-27T17:14:26.137Z,100135.63
2022-12-27T17:17:00.668Z,100125.31
2022-12-27T17:19:33.178Z,100118.44
2022-12-27T17:22:04.070Z,100123.50
2022-12-27T17:24:32.670Z,100123.44
2022-12-27T17:27:12.355Z,100114.84
2022-12-27T17:29:55.571Z,100113.09
2022-12-27T17:32:55.121Z,100109.56
2022-12-27T17:35:28.569Z,100101.13
2022-12-27T17:38:20.411Z,100102.94
2022-12-27T17:41:04.310Z,100107.97
2022-12-27T17:44:17.576Z,100098.56
2022-12-27T17:46:57.826Z,100094.22
2022-12-27T17:49:31.371Z,100085.63
2022-12-27T17:52:23.191Z,100084.72
2022-12-27T17:55:09.702Z,100090.59
2022-12-27T18:00:45.128Z,100087.16
2022-12-27T18:03:15.092Z,100076.91
2022-12-27T18:05:49.429Z,100074.22
2022-12-27T18:08:29.936Z,100077.66
2022-12-27T18:11:03.406Z,100076.69
2022-12-27T18:13:45.489Z,100067.25
2022-12-27T18:16:18.821Z,100056.12
2022-12-27T18:18:49.751Z,100058.63
2022-12-27T18:21:24.503Z,100048.41
2022-12-27T18:23:54.008Z,100050.78
2022-12-27T18:26:38.244Z,100045.97
2022-12-27T18:29:11.456Z,100043.16
2022-12-27T18:31:50.536Z,100047.31
2022-12-27T18:34:26.140Z,100042.19
2022-12-27T18:36:59.422Z,100036.31
2022-12-27T18:39:32.731Z,100031.94
2022-12-27T18:42:02.540Z,100034.50
2022-12-27T18:44:53.222Z,100032.00
2022-12-27T18:47:25.011Z,100025.78
2022-12-27T18:49:57.316Z,100018.12
2022-12-27T18:52:38.679Z,100024.81
2022-12-27T18:55:23.970Z,100022.31
2022-12-27T18:58:04.996Z,100015.47
2022-12-27T19:00:46.620Z,100017.00
2022-12-27T19:03:17.579Z,100017.00
2022-12-27T19:06:12.093Z,100004.06
2022-12-27T19:08:46.590Z,100000.63
2022-12-27T19:11:36.182Z,99998.94
2022-12-27T19:14:05.652Z,99995.47
2022-12-27T19:16:36.082Z,99989.50
2022-12-27T19:19:15.084Z,99995.34
2022-12-27T19:21:43.254Z,99988.63
2022-12-27T19:24:29.727Z,99991.09
2022-12-27T19:27:03.498Z,100001.50
2022-12-27T19:29:37.929Z,99998.72
2022-12-27T19:32:17.054Z,99996.16
2022-12-27T19:34:49.414Z,99989.22
2022-12-27T19:37:18.478Z,99986.63
2022-12-27T19:39:48.151Z,99986.63
2022-12-27T19:42:26.858Z,99986.59
2022-12-27T19:44:55.576Z,99984.84
2022-12-27T19:47:23.649Z,99988.34
2022-12-27T19:49:51.385Z,99979.66
2022-12-27T19:52:22.895Z,99981.31
2022-12-27T19:54:57.892Z,99983.94
2022-12-27T19:57:26.237Z,99981.28
2022-12-27T19:59:58.517Z,99968.69
2022-12-27T20:02:27.218Z,99973.50
2022-12-27T20:04:55.457Z,99976.94
2022-12-27T20:07:26.378Z,99974.38
2022-12-27T20:09:54.448Z,99970.78
2022-12-27T20:12:22.823Z,99960.47
2022-12-27T20:14:50.848Z,99967.41
2022-12-27T20:17:18.690Z,99963.84
2022-12-27T20:22:32.378Z,99966.56
2022-12-27T20:25:00.430Z,99954.50
2022-12-27T20:27:28.393Z,99953.72
2022-12-27T20:29:56.135Z,99956.09
2022-12-27T20:32:24.313Z,99951.72
2022-12-27T20:34:52.482Z,99949.94
2022-12-27T20:37:24.821Z,99948.34
2022-12-27T20:39:53.378Z,99944.97
2022-12-27T20:42:24.801Z,99932.87
2022-12-27T20:44:53.111Z,99931.09
2022-12-27T20:47:21.051Z,99919.19
2022-12-27T20:49:48.909Z,99923.44
2022-12-27T20:52:17.312Z,99914.00
2022-12-27T20:54:45.257Z,99919.19
2022-12-27T20:57:13.194Z,99911.31
2022-12-27T20:59:41.424Z,99905.28
2022-12-27T21:02:12.574Z,99908.66
2022-12-27T21:04:43.356Z,99905.16
2022-12-27T21:07:11.380Z,99911.19
2022-12-27T21:09:39.189Z,99903.38
2022-12-27T21:12:07.041Z,99906.88
2022-12-27T21:14:35.307Z,99897.38
2022-12-27T21:17:03.504Z,99895.72
2022-12-27T21:19:31.906Z,99899.19
2022-12-27T21:22:00.391Z,99892.34
2022-12-27T21:24:28.282Z,99891.38
2022-12-27T21:26:59.542Z,99884.63
2022-12-27T21:29:27.813Z,99893.97
2022-12-27T21:31:55.731Z,99889.81
2022-12-27T21:34:23.651Z,99880.94
2022-12-27T21:36:54.878Z,99880.94
2022-12-27T21:39:22.710Z,99879.28
2022-12-27T21:41:50.530Z,99871.50
2022-12-27T21:44:19.089Z,99863.78
2022-12-27T21:46:48.557Z,99866.34
2022-12-27T21:49:16.456Z,99872.34
2022-12-27T21:51:44.940Z,99857.84
2022-12-27T21:54:14.121Z,99863.59
2022-12-27T21:56:45.199Z,99864.53
2022-12-27T21:59:13.529Z,99860.09
2022-12-27T22:01:51.932Z,99851.69
2022-12-27T22:04:21.991Z,99858.22
2022-12-27T22:06:50.060Z,99852.47
2022-12-27T22:09:22.240Z,99849.91
2022-12-27T22:11:50.693Z,99846.31
2022-12-27T22:14:25.411Z,99844.72
2022-12-27T22:16:54.260Z,99840.13
2022-12-27T22:19:22.174Z,99850.44
2022-12-27T22:21:49.989Z,99845.16
2022-12-27T22:24:20.088Z,99841.25
2022-12-27T22:26:48.889Z,99835.00
2022-12-27T22:29:19.680Z,99829.94
2022-12-27T22:31:47.918Z,99826.25
2022-12-27T22:34:15.770Z,99827.25
2022-12-27T22:36:43.652Z,99822.75
2022-12-27T22:39:11.928Z,99821.09
2022-12-27T22:41:39.717Z,99816.72
2022-12-27T22:44:16.935Z,99811.59
2022-12-27T22:47:23.814Z,99811.66
2022-12-27T22:49:33.191Z,99818.59
2022-12-27T22:52:01.640Z,99797.28
2022-12-27T22:55:03.398Z,99812.44
2022-12-27T22:57:17.737Z,99801.44
2022-12-27T22:59:48.354Z,99797.25
2022-12-27T23:02:16.277Z,99800.53
2022-12-27T23:04:44.680Z,99804.03
2022-12-27T23:07:12.639Z,99796.28
2022-12-27T23:09:43.409Z,99783.38
2022-12-27T23:12:13.011Z,99791.78
2022-12-27T23:14:41.194Z,99786.78
2022-12-27T23:17:09.066Z,99786.75
2022-12-27T23:19:37.281Z,99778.78
2022-12-27T23:22:05.154Z,99782.38
2022-12-27T23:24:36.292Z,99785.69
2022-12-27T23:27:04.634Z,99782.47
2022-12-27T23:29:32.564Z,99778.66
2022-12-27T23:32:00.439Z,99785.63
2022-12-27T23:34:29.429Z,99777.03
2022-12-27T23:37:01.497Z,99781.38
2022-12-27T23:39:29.867Z,99777.88
2022-12-27T23:41:57.721Z,99774.38
2022-12-27T23:44:33.854Z,99776.41
2022-12-27T23:47:05.784Z,99765.66
2022-12-27T23:49:34.327Z,99770.91
2022-12-27T23:52:02.532Z,99768.62
2022-12-27T23:54:30.866Z,99764.03
2022-12-27T23:57:20.322Z,99767.47
2022-12-27T23:59:51.540Z,99760.28
